Time;durP1;ratioP1;P1;durP2;ratioP2;P2;SDS_P1;SDS_P2;PMS_P1;PMS_P2;Temp;Humidity;BMP_temperature;BMP_pressure;BME280_temperature;BME280_humidity;BME280_pressure;Samples;Min_cycle;Max_cycle;Signal;HPM_P1;HPM_P2
2023/05/27 00:01:03;;;;;;;;;;;;;;;16.71;nan;102857.78;5042348;28;19920;-82
2023/05/27 00:03:28;;;;;;;;;;;;;;;16.69;nan;102856.38;5043731;28;20495;-82
2023/05/27 00:05:53;;;;;;;;;;;;;;;16.67;nan;102863.91;5044199;28;19925;-82
2023/05/27 00:08:19;;;;;;;;;;;;;;;16.63;nan;102860.81;5043776;28;19964;-82
2023/05/27 00:10:44;;;;;;;;;;;;;;;16.57;nan;102862.59;5047255;28;19916;-82
2023/05/27 00:13:10;;;;;;;;;;;;;;;16.52;nan;102862.50;5047326;28;19921;-82
2023/05/27 00:15:38;;;;;;;;;;;;;;;16.47;nan;102861.53;5047709;28;19932;-82
2023/05/27 00:18:03;;;;;;;;;;;;;;;16.40;nan;102861.66;5048411;28;20234;-82
2023/05/27 00:20:32;;;;;;;;;;;;;;;16.32;nan;102860.13;5042183;28;20687;-82
2023/05/27 00:22:59;;;;;;;;;;;;;;;16.23;nan;102861.53;5062783;28;19925;-83
2023/05/27 00:25:25;;;;;;;;;;;;;;;16.18;nan;102863.31;5048616;28;20356;-82
2023/05/27 00:27:50;;;;;;;;;;;;;;;16.10;nan;102856.34;5046889;28;19967;-83
2023/05/27 00:30:16;;;;;;;;;;;;;;;16.13;nan;102850.47;5047670;28;19932;-82
2023/05/27 00:32:41;;;;;;;;;;;;;;;16.12;nan;102858.81;5044259;28;19968;-82
2023/05/27 00:35:07;;;;;;;;;;;;;;;16.08;nan;102857.66;5045939;28;19926;-82
2023/05/27 00:37:32;;;;;;;;;;;;;;;16.06;nan;102862.47;5047225;28;20027;-83
2023/05/27 00:39:57;;;;;;;;;;;;;;;16.02;nan;102856.72;5046635;28;21306;-82
2023/05/27 00:42:23;;;;;;;;;;;;;;;16.02;nan;102867.53;5048350;28;19925;-82
2023/05/27 00:44:48;;;;;;;;;;;;;;;15.98;nan;102856.34;5048265;28;20423;-82
2023/05/27 00:47:15;;;;;;;;;;;;;;;15.95;nan;102869.50;5047979;28;20117;-82
2023/05/27 00:49:41;;;;;;;;;;;;;;;15.91;nan;102869.13;5047688;28;19971;-82
2023/05/27 00:52:06;;;;;;;;;;;;;;;15.84;nan;102868.44;5047320;28;19956;-82
2023/05/27 00:54:32;;;;;;;;;;;;;;;15.79;nan;102865.56;5049311;28;20094;-82
2023/05/27 00:56:57;;;;;;;;;;;;;;;15.76;nan;102862.53;5041992;28;20323;-82
2023/05/27 00:59:23;;;;;;;;;;;;;;;15.71;nan;102869.44;5044508;28;19955;-82
2023/05/27 01:01:49;;;;;;;;;;;;;;;15.70;nan;102861.56;5043168;28;19976;-82
2023/05/27 01:04:15;;;;;;;;;;;;;;;15.66;nan;102871.19;5042823;28;19921;-82
2023/05/27 01:07:00;;;;;;;;;;;;;;;15.63;nan;102866.25;5046928;28;19973;-82
2023/05/27 01:09:44;;;;;;;;;;;;;;;15.60;nan;102872.09;5020572;28;20032;-82
2023/05/27 01:12:28;;;;;;;;;;;;;;;15.52;nan;102865.13;5041630;28;19932;-82
2023/05/27 01:14:56;;;;;;;;;;;;;;;15.45;nan;102863.59;5046115;28;20039;-82
2023/05/27 01:17:23;;;;;;;;;;;;;;;15.43;nan;102867.31;5045556;28;19924;-82
2023/05/27 01:19:50;;;;;;;;;;;;;;;15.39;nan;102871.53;5043940;28;20020;-82
2023/05/27 01:22:18;;;;;;;;;;;;;;;15.35;nan;102867.66;5041714;28;19920;-82
2023/05/27 01:24:44;;;;;;;;;;;;;;;15.30;nan;102870.22;5045043;28;19917;-82
2023/05/27 01:27:11;;;;;;;;;;;;;;;15.27;nan;102873.38;5044723;28;19921;-82
2023/05/27 01:29:38;;;;;;;;;;;;;;;15.24;nan;102865.69;5045357;28;19924;-82
2023/05/27 01:32:23;;;;;;;;;;;;;;;15.22;nan;102869.69;5046429;28;20011;-82
2023/05/27 01:34:51;;;;;;;;;;;;;;;15.19;nan;102862.88;5041175;28;19924;-82
2023/05/27 01:37:18;;;;;;;;;;;;;;;15.16;nan;102862.50;5043007;28;20015;-82
2023/05/27 01:39:44;;;;;;;;;;;;;;;15.12;nan;102864.84;5043315;28;20109;-82
2023/05/27 01:42:10;;;;;;;;;;;;;;;15.11;nan;102863.19;5041280;28;19928;-82
2023/05/27 01:44:35;;;;;;;;;;;;;;;15.11;nan;102868.59;5044727;28;19947;-82
2023/05/27 01:47:01;;;;;;;;;;;;;;;15.10;nan;102861.53;5045560;28;20013;-82
2023/05/27 01:49:27;;;;;;;;;;;;;;;15.07;nan;102859.28;5044554;28;19916;-82
2023/05/27 01:51:52;;;;;;;;;;;;;;;15.01;nan;102860.19;5043676;28;19928;-82
2023/05/27 01:54:17;;;;;;;;;;;;;;;14.97;nan;102856.31;5044447;28;19923;-82
2023/05/27 01:56:43;;;;;;;;;;;;;;;14.91;nan;102855.34;5046475;28;20305;-82
2023/05/27 01:59:08;;;;;;;;;;;;;;;14.87;nan;102856.00;5044787;28;20324;-82
2023/05/27 02:01:34;;;;;;;;;;;;;;;14.81;nan;102863.13;5039789;28;19921;-82
2023/05/27 02:03:59;;;;;;;;;;;;;;;14.77;nan;102860.06;5045947;28;19928;-82
2023/05/27 02:06:25;;;;;;;;;;;;;;;14.76;nan;102855.72;5044624;28;19917;-82
2023/05/27 02:08:50;;;;;;;;;;;;;;;14.73;nan;102855.34;5045881;28;20027;-82
2023/05/27 02:11:16;;;;;;;;;;;;;;;14.68;nan;102853.28;5041861;28;20282;-82
2023/05/27 02:13:42;;;;;;;;;;;;;;;14.63;nan;102860.41;5041942;28;19917;-82
2023/05/27 02:16:07;;;;;;;;;;;;;;;14.58;nan;102863.78;5044882;28;20063;-82
2023/05/27 02:18:33;;;;;;;;;;;;;;;14.53;nan;102850.13;5044445;28;19924;-82
2023/05/27 02:21:05;;;;;;;;;;;;;;;14.50;nan;102855.97;5040235;28;20393;-82
2023/05/27 02:23:30;;;;;;;;;;;;;;;14.49;nan;102851.63;5043579;28;19920;-82
2023/05/27 02:25:55;;;;;;;;;;;;;;;14.46;nan;102850.22;5042330;28;19917;-82
2023/05/27 02:28:21;;;;;;;;;;;;;;;14.42;nan;102856.25;5046571;28;19960;-82
2023/05/27 02:30:46;;;;;;;;;;;;;;;14.39;nan;102854.00;5044897;28;20367;-82
2023/05/27 02:33:11;;;;;;;;;;;;;;;14.36;nan;102843.63;5043080;28;19960;-82
2023/05/27 02:35:37;;;;;;;;;;;;;;;14.32;nan;102853.22;5042805;28;20329;-82
2023/05/27 02:38:02;;;;;;;;;;;;;;;14.29;nan;102845.56;5043110;28;19927;-82
2023/05/27 02:40:28;;;;;;;;;;;;;;;14.25;nan;102853.28;5045693;28;19916;-82
2023/05/27 02:42:54;;;;;;;;;;;;;;;14.21;nan;102842.13;5041315;28;19917;-82
2023/05/27 02:45:19;;;;;;;;;;;;;;;14.16;nan;102851.91;5044888;28;20335;-82
2023/05/27 02:47:44;;;;;;;;;;;;;;;14.13;nan;102858.56;5047169;28;20312;-82
2023/05/27 02:50:10;;;;;;;;;;;;;;;14.11;nan;102859.84;5044126;28;19920;-82
2023/05/27 02:52:35;;;;;;;;;;;;;;;14.07;nan;102858.63;5059193;28;20423;-82
2023/05/27 02:55:00;;;;;;;;;;;;;;;14.04;nan;102862.59;5047403;28;19982;-82
2023/05/27 02:57:26;;;;;;;;;;;;;;;14.02;nan;102863.88;5041719;28;20481;-82
2023/05/27 02:59:51;;;;;;;;;;;;;;;13.99;nan;102867.78;5043233;28;20384;-82
2023/05/27 03:02:17;;;;;;;;;;;;;;;13.97;nan;102863.66;5056511;28;20415;-82
2023/05/27 03:04:42;;;;;;;;;;;;;;;13.94;nan;102873.03;5039613;28;19921;-82
2023/05/27 03:07:07;;;;;;;;;;;;;;;13.90;nan;102866.44;5047353;28;19995;-82
2023/05/27 03:09:33;;;;;;;;;;;;;;;13.88;nan;102880.13;5040849;28;19924;-82
2023/05/27 03:11:58;;;;;;;;;;;;;;;13.87;nan;102874.97;5043741;28;19917;-82
2023/05/27 03:14:23;;;;;;;;;;;;;;;13.84;nan;102884.31;5045628;28;19925;-82
2023/05/27 03:16:49;;;;;;;;;;;;;;;13.81;nan;102873.94;5045918;28;20067;-82
2023/05/27 03:19:14;;;;;;;;;;;;;;;13.80;nan;102866.91;5041274;28;19955;-82
2023/05/27 03:21:40;;;;;;;;;;;;;;;13.79;nan;102877.91;5043219;28;19921;-81
2023/05/27 03:24:05;;;;;;;;;;;;;;;13.78;nan;102862.78;5043808;28;19998;-81
2023/05/27 03:26:30;;;;;;;;;;;;;;;13.78;nan;102871.69;5040650;28;20002;-82
2023/05/27 03:28:56;;;;;;;;;;;;;;;13.80;nan;102871.47;5041753;28;19928;-82
2023/05/27 03:31:21;;;;;;;;;;;;;;;13.80;nan;102871.47;5041537;28;19951;-82
2023/05/27 03:33:47;;;;;;;;;;;;;;;13.81;nan;102856.94;5042545;28;19928;-81
2023/05/27 03:36:12;;;;;;;;;;;;;;;13.82;nan;102869.38;5041165;28;19964;-81
2023/05/27 03:38:37;;;;;;;;;;;;;;;13.83;nan;102876.44;5042597;28;19928;-81
2023/05/27 03:41:03;;;;;;;;;;;;;;;13.83;nan;102868.34;5041227;28;19925;-82
2023/05/27 03:43:28;;;;;;;;;;;;;;;13.82;nan;102867.53;5041874;28;19927;-82
2023/05/27 03:45:53;;;;;;;;;;;;;;;13.83;nan;102860.28;5040035;28;20393;-82
2023/05/27 03:48:19;;;;;;;;;;;;;;;13.89;nan;102859.38;5044312;28;19920;-82
2023/05/27 03:50:44;;;;;;;;;;;;;;;13.94;nan;102859.56;5040237;28;19928;-82
2023/05/27 03:53:09;;;;;;;;;;;;;;;13.98;nan;102859.94;5040640;28;20000;-82
2023/05/27 03:55:35;;;;;;;;;;;;;;;14.01;nan;102870.31;5044258;28;19924;-81
2023/05/27 03:58:00;;;;;;;;;;;;;;;14.03;nan;102871.72;5042123;28;19921;-82
2023/05/27 04:00:26;;;;;;;;;;;;;;;14.05;nan;102868.81;5036890;28;19920;-82
2023/05/27 04:02:51;;;;;;;;;;;;;;;14.11;nan;102876.84;5037422;28;19963;-82
2023/05/27 04:05:17;;;;;;;;;;;;;;;14.16;nan;102874.28;5042042;28;19924;-82
2023/05/27 04:07:42;;;;;;;;;;;;;;;14.22;nan;102875.31;5039220;28;19928;-82
2023/05/27 04:10:08;;;;;;;;;;;;;;;14.27;nan;102877.34;5038145;28;19924;-82
2023/05/27 04:12:33;;;;;;;;;;;;;;;14.32;nan;102874.78;5038366;28;19959;-81
2023/05/27 04:14:58;;;;;;;;;;;;;;;14.39;nan;102880.97;5041726;28;19924;-82
2023/05/27 04:17:23;;;;;;;;;;;;;;;14.47;nan;102880.69;5043448;28;19925;-82
2023/05/27 04:19:49;;;;;;;;;;;;;;;14.51;nan;102881.91;5041092;28;19929;-82
2023/05/27 04:22:14;;;;;;;;;;;;;;;14.55;nan;102880.44;5041721;28;20222;-82
2023/05/27 04:24:40;;;;;;;;;;;;;;;14.59;nan;102878.09;5040854;28;20002;-82
2023/05/27 04:27:06;;;;;;;;;;;;;;;14.67;nan;102884.03;5042411;28;19916;-82
2023/05/27 04:29:32;;;;;;;;;;;;;;;14.76;nan;102893.50;5039834;28;20549;-82
2023/05/27 04:31:58;;;;;;;;;;;;;;;14.83;nan;102890.72;5042927;28;19971;-82
2023/05/27 04:34:23;;;;;;;;;;;;;;;14.92;nan;102893.94;5044685;28;20786;-82
2023/05/27 04:36:49;;;;;;;;;;;;;;;15.00;nan;102886.34;5043237;28;20486;-82
2023/05/27 04:39:18;;;;;;;;;;;;;;;15.09;nan;102897.69;5041978;28;19923;-82
2023/05/27 04:41:44;;;;;;;;;;;;;;;15.19;nan;102897.16;5045463;28;20019;-82
2023/05/27 04:44:11;;;;;;;;;;;;;;;15.27;nan;102894.97;5044478;28;20016;-82
2023/05/27 04:46:38;;;;;;;;;;;;;;;15.34;nan;102884.91;5043380;28;20372;-82
2023/05/27 04:49:04;;;;;;;;;;;;;;;15.40;nan;102888.56;5043364;28;19992;-82
2023/05/27 04:51:29;;;;;;;;;;;;;;;15.50;nan;102888.03;5043153;28;20479;-82
2023/05/27 04:53:56;;;;;;;;;;;;;;;15.58;nan;102885.81;5044306;28;20385;-82
2023/05/27 04:56:21;;;;;;;;;;;;;;;15.70;nan;102891.31;5046913;28;20020;-82
2023/05/27 04:58:48;;;;;;;;;;;;;;;15.80;nan;102886.19;5045823;28;19999;-82
2023/05/27 05:01:17;;;;;;;;;;;;;;;15.90;nan;102883.72;5045026;28;19943;-82
2023/05/27 05:03:51;;;;;;;;;;;;;;;15.94;nan;102882.19;5048096;28;19964;-82
2023/05/27 05:06:17;;;;;;;;;;;;;;;16.05;nan;102874.34;5046990;28;19916;-81
2023/05/27 05:08:43;;;;;;;;;;;;;;;16.19;nan;102873.91;5045125;28;19943;-82
2023/05/27 05:11:08;;;;;;;;;;;;;;;16.35;nan;102880.50;5045521;28;19959;-82
2023/05/27 05:13:33;;;;;;;;;;;;;;;16.49;nan;102881.88;5046062;28;19921;-82
2023/05/27 05:15:59;;;;;;;;;;;;;;;16.62;nan;102887.06;5047635;28;20355;-82
2023/05/27 05:18:24;;;;;;;;;;;;;;;16.80;nan;102877.19;5046067;28;20426;-82
2023/05/27 05:20:49;;;;;;;;;;;;;;;16.98;nan;102887.88;5044158;28;20377;-82
2023/05/27 05:23:16;;;;;;;;;;;;;;;17.17;nan;102885.81;5046750;28;19923;-82
2023/05/27 05:25:41;;;;;;;;;;;;;;;17.33;nan;102884.22;5047718;28;19917;-82
2023/05/27 05:28:06;;;;;;;;;;;;;;;17.47;nan;102882.88;5045498;28;20412;-82
2023/05/27 05:30:32;;;;;;;;;;;;;;;17.57;nan;102877.63;5043669;28;20637;-82
2023/05/27 05:32:58;;;;;;;;;;;;;;;17.65;nan;102879.97;5048229;28;20408;-82
2023/05/27 05:35:23;;;;;;;;;;;;;;;17.80;nan;102884.88;5045839;28;20007;-83
2023/05/27 05:37:49;;;;;;;;;;;;;;;17.94;nan;102888.06;5044578;28;19928;-82
2023/05/27 05:40:14;;;;;;;;;;;;;;;18.08;nan;102889.41;5045101;28;19916;-82
2023/05/27 05:42:39;;;;;;;;;;;;;;;18.22;nan;102882.59;5049188;28;19917;-82
2023/05/27 05:45:05;;;;;;;;;;;;;;;18.37;nan;102882.00;5044895;28;19921;-82
2023/05/27 05:47:30;;;;;;;;;;;;;;;18.48;nan;102883.78;5045081;28;19924;-82
2023/05/27 05:49:56;;;;;;;;;;;;;;;18.55;nan;102884.44;5041342;28;20016;-81
2023/05/27 05:52:21;;;;;;;;;;;;;;;18.66;nan;102890.84;5044069;28;20003;-81
2023/05/27 05:54:46;;;;;;;;;;;;;;;18.79;nan;102889.69;5044542;28;20397;-82
2023/05/27 05:57:12;;;;;;;;;;;;;;;18.95;nan;102884.19;5044499;28;20019;-82
2023/05/27 05:59:37;;;;;;;;;;;;;;;19.06;nan;102890.59;5043368;28;19917;-82
2023/05/27 06:02:03;;;;;;;;;;;;;;;19.22;nan;102891.59;5045596;28;19940;-82
2023/05/27 06:04:28;;;;;;;;;;;;;;;19.39;nan;102895.03;5046378;28;20024;-82
2023/05/27 06:06:53;;;;;;;;;;;;;;;19.53;nan;102901.69;5041080;28;20289;-82
2023/05/27 06:09:19;;;;;;;;;;;;;;;19.68;nan;102894.81;5044312;28;20320;-82
2023/05/27 06:11:44;;;;;;;;;;;;;;;19.81;nan;102895.22;5047439;28;20015;-82
2023/05/27 06:14:09;;;;;;;;;;;;;;;19.97;nan;102898.91;5047612;28;19917;-82
2023/05/27 06:16:39;;;;;;;;;;;;;;;20.13;nan;102900.66;5042002;28;20395;-82
2023/05/27 06:19:04;;;;;;;;;;;;;;;20.31;nan;102895.91;5046130;28;20466;-82
2023/05/27 06:21:31;;;;;;;;;;;;;;;20.47;nan;102905.84;5045273;28;19921;-82
2023/05/27 06:23:57;;;;;;;;;;;;;;;20.63;nan;102893.94;5047405;28;19948;-82
2023/05/27 06:26:22;;;;;;;;;;;;;;;20.78;nan;102891.31;5040805;28;20389;-82
2023/05/27 06:28:47;;;;;;;;;;;;;;;20.93;nan;102897.91;5046257;28;20397;-82
2023/05/27 06:31:13;;;;;;;;;;;;;;;21.07;nan;102893.63;5044492;28;19962;-82
2023/05/27 06:33:40;;;;;;;;;;;;;;;21.22;nan;102901.03;5046054;28;20308;-82
2023/05/27 06:36:06;;;;;;;;;;;;;;;21.36;nan;102899.44;5043752;28;19931;-82
2023/05/27 06:38:31;;;;;;;;;;;;;;;21.48;nan;102896.50;5041361;28;20374;-82
2023/05/27 06:40:57;;;;;;;;;;;;;;;21.60;nan;102899.81;5043849;28;19917;-82
2023/05/27 06:43:22;;;;;;;;;;;;;;;21.73;nan;102896.56;5040809;28;20168;-82
2023/05/27 06:45:47;;;;;;;;;;;;;;;21.86;nan;102901.44;5039937;28;20469;-82
2023/05/27 06:48:13;;;;;;;;;;;;;;;22.02;nan;102911.28;5038917;28;19927;-83
2023/05/27 06:50:38;;;;;;;;;;;;;;;22.16;nan;102905.31;5042033;28;19947;-82
2023/05/27 06:53:03;;;;;;;;;;;;;;;22.21;nan;102911.59;5038874;28;19917;-82
2023/05/27 06:55:28;;;;;;;;;;;;;;;22.31;nan;102908.84;5044016;28;19921;-82
2023/05/27 06:57:54;;;;;;;;;;;;;;;22.48;nan;102907.75;5039533;28;20320;-82
2023/05/27 07:00:19;;;;;;;;;;;;;;;22.62;nan;102906.03;5033566;28;19963;-83
2023/05/27 07:02:45;;;;;;;;;;;;;;;22.76;nan;102900.81;5035505;28;20011;-82
2023/05/27 07:05:10;;;;;;;;;;;;;;;22.88;nan;102899.44;5038021;28;19944;-82
2023/05/27 07:07:35;;;;;;;;;;;;;;;23.03;nan;102897.75;5034278;28;19924;-82
2023/05/27 07:10:01;;;;;;;;;;;;;;;23.14;nan;102902.88;5037502;28;19927;-83
2023/05/27 07:12:26;;;;;;;;;;;;;;;23.11;nan;102903.44;5037105;28;20018;-82
2023/05/27 07:14:51;;;;;;;;;;;;;;;23.12;nan;102902.34;5039522;28;19924;-83
2023/05/27 07:17:17;;;;;;;;;;;;;;;23.19;nan;102902.88;5036939;28;20669;-84
2023/05/27 07:19:42;;;;;;;;;;;;;;;23.30;nan;102895.41;5038086;28;20303;-84
2023/05/27 07:22:07;;;;;;;;;;;;;;;23.39;nan;102899.22;5039879;28;19921;-84
2023/05/27 07:24:33;;;;;;;;;;;;;;;23.34;nan;102882.00;5043284;28;19925;-83
2023/05/27 07:26:58;;;;;;;;;;;;;;;23.25;nan;102880.97;5038187;28;19932;-83
2023/05/27 07:29:23;;;;;;;;;;;;;;;23.16;nan;102891.66;5042182;28;20308;-83
2023/05/27 07:31:49;;;;;;;;;;;;;;;23.13;nan;102893.03;5035445;28;20304;-83
2023/05/27 07:34:14;;;;;;;;;;;;;;;23.24;nan;102887.53;5036425;28;20351;-83
2023/05/27 07:36:39;;;;;;;;;;;;;;;23.41;nan;102885.25;5041482;28;20359;-83
2023/05/27 07:39:05;;;;;;;;;;;;;;;23.62;nan;102877.75;5044163;28;19920;-83
2023/05/27 07:41:30;;;;;;;;;;;;;;;23.81;nan;102887.72;5035820;28;19925;-84
2023/05/27 07:43:56;;;;;;;;;;;;;;;24.05;nan;102890.50;5042473;28;19927;-83
2023/05/27 07:46:21;;;;;;;;;;;;;;;24.25;nan;102875.84;5041254;28;19920;-83
2023/05/27 07:48:47;;;;;;;;;;;;;;;24.36;nan;102879.31;5042722;28;19931;-83
2023/05/27 07:51:12;;;;;;;;;;;;;;;24.45;nan;102874.84;5037947;28;19924;-83
2023/05/27 07:53:37;;;;;;;;;;;;;;;24.49;nan;102875.88;5040683;28;19921;-83
2023/05/27 07:56:03;;;;;;;;;;;;;;;24.58;nan;102871.38;5039609;28;19979;-83
2023/05/27 07:58:28;;;;;;;;;;;;;;;24.74;nan;102866.53;5044325;28;20385;-84
2023/05/27 08:00:53;;;;;;;;;;;;;;;24.90;nan;102869.91;5039055;28;19917;-83
2023/05/27 08:03:19;;;;;;;;;;;;;;;24.89;nan;102863.63;5040668;28;20611;-83
2023/05/27 08:05:44;;;;;;;;;;;;;;;24.79;nan;102857.47;5038436;28;19962;-84
2023/05/27 08:08:09;;;;;;;;;;;;;;;24.78;nan;102862.13;5038291;28;20139;-83
2023/05/27 08:10:35;;;;;;;;;;;;;;;24.92;nan;102856.72;5037473;28;19995;-83
2023/05/27 08:13:00;;;;;;;;;;;;;;;25.09;nan;102856.25;5042310;28;19964;-83
2023/05/27 08:15:26;;;;;;;;;;;;;;;25.23;nan;102859.91;5042247;28;19912;-83
2023/05/27 08:17:52;;;;;;;;;;;;;;;25.39;nan;102850.34;5045951;28;20396;-84
2023/05/27 08:20:17;;;;;;;;;;;;;;;25.55;nan;102861.91;5044282;28;19955;-83
2023/05/27 08:22:42;;;;;;;;;;;;;;;25.73;nan;102857.53;5045129;28;19921;-83
2023/05/27 08:25:08;;;;;;;;;;;;;;;25.87;nan;102859.19;5046893;28;20027;-83
2023/05/27 08:27:44;;;;;;;;;;;;;;;26.00;nan;102863.06;5042820;28;19982;-83
2023/05/27 08:30:10;;;;;;;;;;;;;;;26.06;nan;102859.13;5041230;28;19925;-83
2023/05/27 08:32:36;;;;;;;;;;;;;;;26.07;nan;102859.94;5044191;28;20324;-84
2023/05/27 08:35:01;;;;;;;;;;;;;;;26.03;nan;102857.00;5047557;28;19943;-84
2023/05/27 08:37:27;;;;;;;;;;;;;;;26.06;nan;102845.41;5040528;28;19929;-86
2023/05/27 08:39:54;;;;;;;;;;;;;;;26.18;nan;102844.91;5043713;28;19921;-85
2023/05/27 08:42:19;;;;;;;;;;;;;;;26.30;nan;102847.16;5046900;28;20380;-86
2023/05/27 08:44:45;;;;;;;;;;;;;;;26.48;nan;102846.28;5045933;28;19927;-84
2023/05/27 08:47:11;;;;;;;;;;;;;;;26.61;nan;102836.41;5047683;28;19925;-85
2023/05/27 08:49:37;;;;;;;;;;;;;;;26.80;nan;102835.16;5046492;28;19923;-86
2023/05/27 08:52:02;;;;;;;;;;;;;;;26.96;nan;102837.59;5049037;28;19959;-85
2023/05/27 08:54:29;;;;;;;;;;;;;;;27.12;nan;102827.91;5045165;28;20272;-85
2023/05/27 08:56:55;;;;;;;;;;;;;;;27.30;nan;102829.66;5048454;28;19932;-85
2023/05/27 08:59:21;;;;;;;;;;;;;;;27.28;nan;102836.59;5047070;28;19917;-85
2023/05/27 09:01:47;;;;;;;;;;;;;;;27.13;nan;102829.53;5047628;28;19917;-83
2023/05/27 09:04:12;;;;;;;;;;;;;;;26.96;nan;102830.13;5045607;28;20398;-84
2023/05/27 09:06:38;;;;;;;;;;;;;;;26.89;nan;102829.72;5047146;28;19921;-82
2023/05/27 09:09:03;;;;;;;;;;;;;;;26.83;nan;102824.66;5044561;28;19921;-84
2023/05/27 09:11:34;;;;;;;;;;;;;;;26.74;nan;102828.13;5044998;28;19917;-82
2023/05/27 09:13:59;;;;;;;;;;;;;;;26.71;nan;102831.50;5042335;28;20331;-85
2023/05/27 09:16:24;;;;;;;;;;;;;;;26.76;nan;102827.84;5046259;28;19970;-83
2023/05/27 09:18:50;;;;;;;;;;;;;;;26.88;nan;102825.34;5047716;28;20316;-84
2023/05/27 09:21:15;;;;;;;;;;;;;;;26.97;nan;102829.00;5044877;28;19943;-83
2023/05/27 09:23:41;;;;;;;;;;;;;;;27.04;nan;102825.88;5041265;28;20011;-86
2023/05/27 09:26:10;;;;;;;;;;;;;;;27.21;nan;102823.25;5042003;28;20273;-85
2023/05/27 09:28:36;;;;;;;;;;;;;;;27.46;nan;102818.25;5042463;28;19978;-86
2023/05/27 09:31:04;;;;;;;;;;;;;;;27.73;nan;102823.66;5048307;28;19942;-87
2023/05/27 09:33:32;;;;;;;;;;;;;;;28.03;nan;102824.00;5042564;28;20069;-87
2023/05/27 09:35:57;;;;;;;;;;;;;;;28.29;nan;102813.91;5057648;28;19917;-87
2023/05/27 09:38:22;;;;;;;;;;;;;;;28.52;nan;102815.44;5046982;28;19927;-86
2023/05/27 09:40:48;;;;;;;;;;;;;;;28.68;nan;102821.31;5047597;28;20282;-87
2023/05/27 09:43:17;;;;;;;;;;;;;;;28.72;nan;102819.53;5044920;28;20185;-86
2023/05/27 09:45:42;;;;;;;;;;;;;;;28.82;nan;102821.19;5057014;28;19932;-85
2023/05/27 09:48:09;;;;;;;;;;;;;;;28.92;nan;102812.66;5041027;28;19925;-86
2023/05/27 09:50:35;;;;;;;;;;;;;;;28.95;nan;102813.94;5038215;28;20889;-85
2023/05/27 09:53:02;;;;;;;;;;;;;;;29.01;nan;102813.44;5042163;28;19932;-86
2023/05/27 09:55:28;;;;;;;;;;;;;;;29.13;nan;102805.34;5043625;28;20373;-82
2023/05/27 09:57:53;;;;;;;;;;;;;;;29.25;nan;102803.84;5040301;28;20312;-85
2023/05/27 10:00:19;;;;;;;;;;;;;;;29.32;nan;102802.25;5037636;28;19928;-87
2023/05/27 10:02:46;;;;;;;;;;;;;;;29.41;nan;102797.50;5039027;28;19962;-86
2023/05/27 10:05:12;;;;;;;;;;;;;;;29.56;nan;102807.28;5044333;28;19925;-85
2023/05/27 10:07:38;;;;;;;;;;;;;;;29.72;nan;102797.31;5036412;28;20475;-83
2023/05/27 10:10:06;;;;;;;;;;;;;;;29.80;nan;102801.19;5042078;28;19920;-85
2023/05/27 10:12:32;;;;;;;;;;;;;;;29.83;nan;102799.75;5039535;28;19966;-83
2023/05/27 10:14:57;;;;;;;;;;;;;;;29.89;nan;102792.88;5040823;28;20039;-85
2023/05/27 10:17:23;;;;;;;;;;;;;;;29.93;nan;102794.66;5042076;28;20463;-85
2023/05/27 10:19:52;;;;;;;;;;;;;;;30.05;nan;102786.50;5037910;28;20423;-87
2023/05/27 10:22:20;;;;;;;;;;;;;;;30.22;nan;102793.09;5038897;28;20002;-86
2023/05/27 10:24:47;;;;;;;;;;;;;;;30.30;nan;102789.47;5039704;28;20425;-84
2023/05/27 10:27:13;;;;;;;;;;;;;;;30.42;nan;102792.34;5045378;28;20385;-84
2023/05/27 10:29:38;;;;;;;;;;;;;;;30.57;nan;102789.00;5043255;28;19920;-82
2023/05/27 10:32:04;;;;;;;;;;;;;;;30.71;nan;102774.94;5042355;28;20523;-84
2023/05/27 10:34:37;;;;;;;;;;;;;;;30.85;nan;102780.19;5048454;28;19927;-83
2023/05/27 10:37:02;;;;;;;;;;;;;;;30.78;nan;102771.63;5044093;28;19970;-86
2023/05/27 10:39:28;;;;;;;;;;;;;;;30.70;nan;102783.53;5039468;28;19921;-86
2023/05/27 10:41:55;;;;;;;;;;;;;;;30.74;nan;102773.44;5038145;28;19925;-85
2023/05/27 10:44:31;;;;;;;;;;;;;;;30.85;nan;102775.44;5040902;28;20458;-86
2023/05/27 10:47:03;;;;;;;;;;;;;;;30.94;nan;102767.91;5039342;28;20000;-86
2023/05/27 10:49:35;;;;;;;;;;;;;;;30.97;nan;102767.22;5042799;28;19924;-85
2023/05/27 10:52:12;;;;;;;;;;;;;;;30.85;nan;102764.38;5043027;28;19916;-83
2023/05/27 10:54:38;;;;;;;;;;;;;;;30.64;nan;102769.09;5039743;28;20001;-85
2023/05/27 10:57:03;;;;;;;;;;;;;;;30.51;nan;102759.06;5043084;28;19925;-84
2023/05/27 10:59:39;;;;;;;;;;;;;;;30.56;nan;102765.25;5042831;28;19916;-86
2023/05/27 11:02:05;;;;;;;;;;;;;;;30.72;nan;102753.59;5042242;28;19943;-88
2023/05/27 11:04:37;;;;;;;;;;;;;;;30.83;nan;102750.06;5043592;28;21022;-85
2023/05/27 11:07:03;;;;;;;;;;;;;;;30.96;nan;102748.19;5041192;28;19921;-86
2023/05/27 11:09:28;;;;;;;;;;;;;;;31.05;nan;102742.56;5043183;28;19933;-86
2023/05/27 11:12:01;;;;;;;;;;;;;;;31.06;nan;102746.94;5039190;28;20015;-86
2023/05/27 11:14:27;;;;;;;;;;;;;;;31.09;nan;102743.53;5043693;28;19921;-83
2023/05/27 11:16:52;;;;;;;;;;;;;;;31.08;nan;102739.94;5043337;28;19977;-83
2023/05/27 11:19:21;;;;;;;;;;;;;;;31.19;nan;102741.16;5040657;28;19917;-83
2023/05/27 11:21:47;;;;;;;;;;;;;;;31.35;nan;102740.50;5041151;28;19963;-88
2023/05/27 11:24:16;;;;;;;;;;;;;;;31.53;nan;102736.38;5043016;28;19916;-87
2023/05/27 11:26:46;;;;;;;;;;;;;;;31.76;nan;102739.56;5039056;28;20043;-86
2023/05/27 11:29:11;;;;;;;;;;;;;;;31.94;nan;102740.94;5038726;28;19991;-87
2023/05/27 11:31:40;;;;;;;;;;;;;;;32.03;nan;102732.53;5040515;28;20654;-86
2023/05/27 11:34:11;;;;;;;;;;;;;;;31.93;nan;102725.47;5037765;28;19925;-86
2023/05/27 11:36:36;;;;;;;;;;;;;;;31.68;nan;102734.91;5035201;28;20207;-87
2023/05/27 11:39:02;;;;;;;;;;;;;;;31.58;nan;102725.88;5038546;28;19920;-87
2023/05/27 11:41:28;;;;;;;;;;;;;;;31.71;nan;102723.94;5043566;28;20302;-88
2023/05/27 11:43:57;;;;;;;;;;;;;;;31.94;nan;102724.31;5035372;28;19951;-89
2023/05/27 11:46:22;;;;;;;;;;;;;;;32.09;nan;102712.53;5031739;28;20301;-87
2023/05/27 11:48:48;;;;;;;;;;;;;;;32.25;nan;102717.38;5038979;28;19932;-88
2023/05/27 11:51:13;;;;;;;;;;;;;;;32.40;nan;102711.13;5036957;28;19933;-86
2023/05/27 11:53:39;;;;;;;;;;;;;;;32.58;nan;102704.16;5041574;28;19920;-87
2023/05/27 11:56:05;;;;;;;;;;;;;;;32.76;nan;102702.69;5038346;28;19921;-88
2023/05/27 11:58:31;;;;;;;;;;;;;;;32.91;nan;102703.94;5027543;28;19936;-88
2023/05/27 12:00:56;;;;;;;;;;;;;;;32.96;nan;102694.53;5034738;28;19964;-88
2023/05/27 12:03:21;;;;;;;;;;;;;;;32.87;nan;102693.91;5043532;28;19927;-85
2023/05/27 12:05:46;;;;;;;;;;;;;;;32.80;nan;102696.44;5044024;28;20617;-84
2023/05/27 12:08:12;;;;;;;;;;;;;;;32.77;nan;102686.84;5040530;28;19929;-87
2023/05/27 12:10:37;;;;;;;;;;;;;;;32.70;nan;102683.88;5046181;28;19925;-87
2023/05/27 12:13:05;;;;;;;;;;;;;;;32.60;nan;102681.59;5049193;28;19920;-87
2023/05/27 12:15:31;;;;;;;;;;;;;;;32.55;nan;102674.34;5041076;28;19921;-85
2023/05/27 12:17:56;;;;;;;;;;;;;;;32.39;nan;102673.47;5046636;28;19921;-85
2023/05/27 12:20:24;;;;;;;;;;;;;;;32.39;nan;102676.22;5044840;28;20411;-88
2023/05/27 12:22:49;;;;;;;;;;;;;;;32.52;nan;102663.94;5038714;28;20377;-87
2023/05/27 12:25:15;;;;;;;;;;;;;;;32.67;nan;102663.16;5035918;28;20591;-86
2023/05/27 12:27:40;;;;;;;;;;;;;;;32.90;nan;102662.66;5037799;28;20389;-83
2023/05/27 12:30:06;;;;;;;;;;;;;;;33.10;nan;102663.56;5039270;28;19921;-89
2023/05/27 12:32:31;;;;;;;;;;;;;;;33.21;nan;102659.91;5040272;28;19929;-87
2023/05/27 12:34:56;;;;;;;;;;;;;;;33.23;nan;102656.78;5042977;28;20011;-86
2023/05/27 12:37:22;;;;;;;;;;;;;;;33.29;nan;102658.94;5040777;28;19924;-87
2023/05/27 12:39:47;;;;;;;;;;;;;;;33.28;nan;102657.31;5039658;28;19928;-87
2023/05/27 12:42:12;;;;;;;;;;;;;;;33.27;nan;102652.94;5038035;28;20053;-86
2023/05/27 12:44:38;;;;;;;;;;;;;;;33.30;nan;102652.22;5041584;28;19944;-86
2023/05/27 12:47:03;;;;;;;;;;;;;;;33.28;nan;102651.75;5040204;28;19943;-82
2023/05/27 12:49:28;;;;;;;;;;;;;;;33.33;nan;102647.94;5037247;28;19954;-86
2023/05/27 12:51:54;;;;;;;;;;;;;;;33.40;nan;102644.53;5039396;28;19920;-84